Menu Close Menu
Station Historical Data
Daily Summary for September 21, 2017 Units:  English    Metric   Both
« Previous Day
Next Day »
Daily Weekly Monthly Yearly Custom
  High: Low: Average:
Temperature: 89.8 °F 66.0 °F 75.5 °F
Dew Point: 68.6 °F 62.9 °F 66.2 °F
Humidity: 94% 44% 75%
Wind Speed: 6.0mph 3.0mph 4mph
Wind Gust: 6.0mph - -
Wind- - South
Pressure: 30.08 in 29.98 in -
Precipitation: 0.00 in    
Historical Graphs
 
 
Tabular Data for September 21, 2017
Time Temperature Dew Point Pressure Wind Wind Speed Wind Gust Humidity Rainfall Rate (Hourly) solar Conditions
00:00 72.7 °F 67.3 °F 30.03 in NNW 3.0 mph 3.0 mph 83% 0.00 in WeatherDisplay:10.37 W/m2 FEW
00:05 72.6 °F 67.1 °F 30.03 in NNW 3.0 mph 3.0 mph 83% 0.00 in WeatherDisplay:10.37 W/m2 FEW
00:10 72.2 °F 67.1 °F 30.04 in NNW 3.0 mph 3.0 mph 84% 0.00 in WeatherDisplay:10.37 W/m2 FEW
00:15 71.8 °F 66.7 °F 30.03 in NW 3.0 mph 3.0 mph 84% 0.00 in WeatherDisplay:10.37 W/m2 CLR
00:20 71.6 °F 66.8 °F 30.03 in WNW 3.0 mph 3.0 mph 85% 0.00 in WeatherDisplay:10.37 W/m2 CLR
00:25 71.3 °F 66.6 °F 30.03 in WNW 3.0 mph 3.0 mph 85% 0.00 in WeatherDisplay:10.37 W/m2 CLR
00:30 71.2 °F 66.8 °F 30.03 in WNW 3.0 mph 3.0 mph 86% 0.00 in WeatherDisplay:10.37 W/m2 CLR
00:35 70.9 °F 66.5 °F 30.03 in WNW 3.0 mph 3.0 mph 86% 0.00 in WeatherDisplay:10.37 W/m2 CLR
00:40 70.6 °F 66.2 °F 30.03 in WNW 3.0 mph 3.0 mph 86% 0.00 in WeatherDisplay:10.37 W/m2 CLR
00:45 70.5 °F 66.4 °F 30.03 in WNW 3.0 mph 3.0 mph 87% 0.00 in WeatherDisplay:10.37 W/m2 CLR
00:50 70.3 °F 66.2 °F 30.03 in WNW 3.0 mph 3.0 mph 87% 0.00 in WeatherDisplay:10.37 W/m2 CLR
00:55 70.1 °F 66.0 °F 30.03 in WNW 3.0 mph 3.0 mph 87% 0.00 in WeatherDisplay:10.37 W/m2 CLR
01:00 69.9 °F 66.2 °F 30.03 in WNW 3.0 mph 3.0 mph 88% 0.00 in WeatherDisplay:10.37 W/m2 CLR
01:10 69.7 °F 66.3 °F 30.03 in WNW 3.0 mph 3.0 mph 89% 0.00 in WeatherDisplay:10.37 W/m2 CLR
01:15 69.6 °F 66.2 °F 30.03 in WNW 3.0 mph 3.0 mph 89% 0.00 in WeatherDisplay:10.37 W/m2 CLR
01:20 69.6 °F 66.2 °F 30.03 in West 3.0 mph 3.0 mph 89% 0.00 in WeatherDisplay:10.37 W/m2 CLR
01:25 69.4 °F 66.0 °F 30.03 in West 3.0 mph 3.0 mph 89% 0.00 in WeatherDisplay:10.37 W/m2 CLR
01:30 69.4 °F 66.0 °F 30.03 in West 3.0 mph 3.0 mph 89% 0.00 in WeatherDisplay:10.37 W/m2 CLR
01:35 69.4 °F 66.3 °F 30.03 in West 3.0 mph 3.0 mph 90% 0.00 in WeatherDisplay:10.37 W/m2 CLR
01:40 69.4 °F 66.3 °F 30.03 in West 3.0 mph 3.0 mph 90% 0.00 in WeatherDisplay:10.37 W/m2 CLR
01:45 69.6 °F 66.5 °F 30.03 in West 3.0 mph 3.0 mph 90% 0.00 in WeatherDisplay:10.37 W/m2 CLR
01:50 69.4 °F 66.1 °F 30.03 in West 3.0 mph 3.0 mph 89% 0.00 in WeatherDisplay:10.37 W/m2 CLR
02:00 69.3 °F 66.2 °F 30.03 in West 3.0 mph 3.0 mph 90% 0.00 in WeatherDisplay:10.37 W/m2 CLR
02:05 69.2 °F 66.1 °F 30.03 in West 3.0 mph 3.0 mph 90% 0.00 in WeatherDisplay:10.37 W/m2 CLR
02:10 69.3 °F 66.2 °F 30.02 in West 3.0 mph 3.0 mph 90% 0.00 in WeatherDisplay:10.37 W/m2 CLR
02:15 69.3 °F 66.2 °F 30.02 in West 3.0 mph 3.0 mph 90% 0.00 in WeatherDisplay:10.37 W/m2 CLR
02:20 69.1 °F 66.0 °F 30.02 in West 3.0 mph 3.0 mph 90% 0.00 in WeatherDisplay:10.37 W/m2 CLR
02:25 69.0 °F 65.9 °F 30.02 in West 3.0 mph 3.0 mph 90% 0.00 in WeatherDisplay:10.37 W/m2 CLR
02:30 68.9 °F 65.8 °F 30.02 in West 3.0 mph 3.0 mph 90% 0.00 in WeatherDisplay:10.37 W/m2 CLR
02:35 68.9 °F 65.8 °F 30.02 in West 3.0 mph 3.0 mph 90% 0.00 in WeatherDisplay:10.37 W/m2 CLR
02:40 68.8 °F 65.7 °F 30.02 in West 3.0 mph 3.0 mph 90% 0.00 in WeatherDisplay:10.37 W/m2 CLR
02:45 68.7 °F 65.7 °F 30.02 in West 3.0 mph 3.0 mph 90% 0.00 in WeatherDisplay:10.37 W/m2 CLR
02:50 68.6 °F 65.5 °F 30.02 in West 3.0 mph 3.0 mph 90% 0.00 in WeatherDisplay:10.37 W/m2 CLR
03:00 68.4 °F 65.4 °F 30.02 in West 3.0 mph 3.0 mph 90% 0.00 in WeatherDisplay:10.37 W/m2 CLR
03:05 68.3 °F 65.3 °F 30.02 in West 3.0 mph 3.0 mph 90% 0.00 in WeatherDisplay:10.37 W/m2 CLR
03:10 68.3 °F 65.6 °F 30.02 in West 3.0 mph 3.0 mph 91% 0.00 in WeatherDisplay:10.37 W/m2 CLR
03:15 68.3 °F 65.6 °F 30.02 in West 3.0 mph 3.0 mph 91% 0.00 in WeatherDisplay:10.37 W/m2 CLR
03:20 68.3 °F 65.6 °F 30.02 in West 3.0 mph 3.0 mph 91% 0.00 in WeatherDisplay:10.37 W/m2 CLR
03:25 68.3 °F 65.6 °F 30.02 in West 3.0 mph 3.0 mph 91% 0.00 in WeatherDisplay:10.37 W/m2 CLR
03:30 68.3 °F 65.6 °F 30.02 in West 3.0 mph 3.0 mph 91% 0.00 in WeatherDisplay:10.37 W/m2 CLR
03:40 68.3 °F 65.6 °F 30.02 in West 3.0 mph 3.0 mph 91% 0.00 in WeatherDisplay:10.37 W/m2 CLR
03:45 68.1 °F 65.4 °F 30.02 in West 3.0 mph 3.0 mph 91% 0.00 in WeatherDisplay:10.37 W/m2 CLR
03:50 67.9 °F 65.2 °F 30.02 in West 3.0 mph 3.0 mph 91% 0.00 in WeatherDisplay:10.37 W/m2 CLR
03:55 67.8 °F 65.1 °F 30.02 in West 3.0 mph 3.0 mph 91% 0.00 in WeatherDisplay:10.37 W/m2 CLR
04:00 67.7 °F 65.0 °F 30.02 in West 3.0 mph 3.0 mph 91% 0.00 in WeatherDisplay:10.37 W/m2 CLR
04:05 67.7 °F 65.0 °F 30.02 in West 3.0 mph 3.0 mph 91% 0.00 in WeatherDisplay:10.37 W/m2 CLR
04:10 67.7 °F 65.0 °F 30.02 in West 3.0 mph 3.0 mph 91% 0.00 in WeatherDisplay:10.37 W/m2 CLR
04:15 67.6 °F 64.9 °F 30.02 in West 3.0 mph 3.0 mph 91% 0.00 in WeatherDisplay:10.37 W/m2 CLR
04:20 67.5 °F 64.8 °F 30.02 in West 3.0 mph 3.0 mph 91% 0.00 in WeatherDisplay:10.37 W/m2 CLR
04:25 67.4 °F 64.7 °F 30.02 in West 3.0 mph 3.0 mph 91% 0.00 in WeatherDisplay:10.37 W/m2 CLR
04:30 67.4 °F 64.7 °F 30.02 in West 3.0 mph 3.0 mph 91% 0.00 in WeatherDisplay:10.37 W/m2 CLR
04:40 67.3 °F 64.9 °F 30.02 in West 3.0 mph 3.0 mph 92% 0.00 in WeatherDisplay:10.37 W/m2 CLR
04:45 67.2 °F 64.8 °F 30.02 in West 3.0 mph 3.0 mph 92% 0.00 in WeatherDisplay:10.37 W/m2 CLR
04:50 67.2 °F 64.8 °F 30.03 in West 3.0 mph 3.0 mph 92% 0.00 in WeatherDisplay:10.37 W/m2 CLR
04:55 67.1 °F 64.7 °F 30.03 in West 3.0 mph 3.0 mph 92% 0.00 in WeatherDisplay:10.37 W/m2 CLR
05:00 67.0 °F 64.6 °F 30.03 in West 3.0 mph 3.0 mph 92% 0.00 in WeatherDisplay:10.37 W/m2 CLR
05:05 66.9 °F 64.5 °F 30.03 in West 3.0 mph 3.0 mph 92% 0.00 in WeatherDisplay:10.37 W/m2 CLR
05:10 66.9 °F 64.5 °F 30.03 in West 3.0 mph 3.0 mph 92% 0.00 in WeatherDisplay:10.37 W/m2 CLR
05:15 66.9 °F 64.5 °F 30.03 in West 3.0 mph 3.0 mph 92% 0.00 in WeatherDisplay:10.37 W/m2 CLR
05:20 67.0 °F 64.6 °F 30.04 in West 3.0 mph 3.0 mph 92% 0.00 in WeatherDisplay:10.37 W/m2 CLR
05:25 67.0 °F 64.6 °F 30.04 in West 3.0 mph 3.0 mph 92% 0.00 in WeatherDisplay:10.37 W/m2 CLR
05:30 66.9 °F 64.5 °F 30.04 in West 3.0 mph 3.0 mph 92% 0.00 in WeatherDisplay:10.37 W/m2 CLR
05:35 66.8 °F 64.4 °F 30.04 in West 3.0 mph 3.0 mph 92% 0.00 in WeatherDisplay:10.37 W/m2 CLR
05:40 66.7 °F 64.3 °F 30.04 in West 3.0 mph 3.0 mph 92% 0.00 in WeatherDisplay:10.37 W/m2 CLR
05:45 66.7 °F 64.3 °F 30.04 in West 3.0 mph 3.0 mph 92% 0.00 in WeatherDisplay:10.37 W/m2 CLR
05:50 66.7 °F 64.3 °F 30.04 in West 3.0 mph 3.0 mph 92% 0.00 in WeatherDisplay:10.37 W/m2 CLR
05:55 66.6 °F 64.2 °F 30.05 in West 3.0 mph 3.0 mph 92% 0.00 in WeatherDisplay:10.37 W/m2 CLR
06:00 66.5 °F 64.1 °F 30.05 in West 3.0 mph 3.0 mph 92% 0.00 in WeatherDisplay:10.37 W/m2 CLR
06:05 66.5 °F 64.1 °F 30.05 in West 3.0 mph 3.0 mph 92% 0.00 in WeatherDisplay:10.37 W/m2 CLR
06:10 66.6 °F 64.2 °F 30.05 in West 3.0 mph 3.0 mph 92% 0.00 in WeatherDisplay:10.37 W/m2 CLR
06:15 66.7 °F 64.3 °F 30.05 in West 3.0 mph 3.0 mph 92% 0.00 in WeatherDisplay:10.37 W/m2 CLR
06:20 66.7 °F 64.6 °F 30.05 in West 3.0 mph 3.0 mph 93% 0.00 in WeatherDisplay:10.37 W/m2 CLR
06:25 66.8 °F 64.7 °F 30.05 in West 3.0 mph 3.0 mph 93% 0.00 in WeatherDisplay:10.37 W/m2 CLR
06:30 66.9 °F 64.8 °F 30.05 in West 3.0 mph 3.0 mph 93% 0.00 in WeatherDisplay:10.37 W/m2 CLR
06:35 66.9 °F 64.8 °F 30.05 in West 3.0 mph 3.0 mph 93% 0.00 in WeatherDisplay:10.37 W/m2 CLR
06:40 66.9 °F 64.8 °F 30.06 in West 3.0 mph 3.0 mph 93% 0.00 in WeatherDisplay:10.37 W/m2 CLR
06:45 66.9 °F 64.8 °F 30.06 in West 3.0 mph 3.0 mph 93% 0.00 in WeatherDisplay:10.37 W/m2 CLR
06:50 66.9 °F 64.8 °F 30.05 in West 3.0 mph 3.0 mph 93% 0.00 in WeatherDisplay:10.37 W/m2 CLR
07:00 66.5 °F 64.1 °F 30.06 in West 3.0 mph 3.0 mph 92% 0.00 in WeatherDisplay:10.37 W/m2 CLR
07:05 66.4 °F 64.0 °F 30.06 in West 3.0 mph 3.0 mph 92% 0.00 in WeatherDisplay:10.37 W/m2 CLR
07:10 66.3 °F 63.9 °F 30.06 in West 3.0 mph 3.0 mph 92% 0.00 in WeatherDisplay:10.37 W/m2 CLR
07:15 66.2 °F 63.8 °F 30.06 in West 3.0 mph 3.0 mph 92% 0.00 in WeatherDisplay:10.37 W/m2 FEW
07:20 66.2 °F 64.1 °F 30.06 in West 3.0 mph 3.0 mph 93% 0.00 in WeatherDisplay:10.37 W/m2 FEW
07:25 66.2 °F 64.1 °F 30.07 in West 3.0 mph 3.0 mph 93% 0.00 in WeatherDisplay:10.37 W/m2 FEW
07:30 66.1 °F 64.0 °F 30.07 in West 3.0 mph 3.0 mph 93% 0.00 in WeatherDisplay:10.37 W/m2 FEW
07:35 66.1 °F 64.0 °F 30.07 in West 3.0 mph 3.0 mph 93% 0.00 in WeatherDisplay:10.37 W/m2 FEW
07:40 66.1 °F 64.0 °F 30.07 in West 3.0 mph 3.0 mph 93% 0.00 in WeatherDisplay:10.37 W/m2 FEW
07:45 66.1 °F 64.0 °F 30.07 in West 3.0 mph 3.0 mph 93% 0.00 in WeatherDisplay:10.37 W/m2 FEW
07:50 66.1 °F 64.0 °F 30.07 in West 3.0 mph 3.0 mph 93% 0.00 in WeatherDisplay:10.37 W/m2 FEW
07:55 66.0 °F 63.9 °F 30.07 in West 3.0 mph 3.0 mph 93% 0.00 in WeatherDisplay:10.37 W/m2 FEW
08:00 66.1 °F 64.0 °F 30.07 in West 3.0 mph 3.0 mph 93% 0.00 in WeatherDisplay:10.37 W/m2 FEW
08:10 66.3 °F 64.2 °F 30.07 in West 3.0 mph 3.0 mph 93% 0.00 in WeatherDisplay:10.37 W/m2 FEW
08:20 66.7 °F 64.6 °F 30.07 in West 3.0 mph 3.0 mph 93% 0.00 in WeatherDisplay:10.37 W/m2 CLR
08:25 67.0 °F 64.9 °F 30.08 in West 3.0 mph 3.0 mph 93% 0.00 in WeatherDisplay:10.37 W/m2 CLR
08:30 67.3 °F 65.5 °F 30.08 in West 3.0 mph 3.0 mph 94% 0.00 in WeatherDisplay:10.37 W/m2 CLR
08:35 67.6 °F 65.8 °F 30.08 in West 3.0 mph 3.0 mph 94% 0.00 in WeatherDisplay:10.37 W/m2 CLR
08:40 67.8 °F 66.0 °F 30.08 in West 3.0 mph 3.0 mph 94% 0.00 in WeatherDisplay:10.37 W/m2 CLR
08:45 68.0 °F 66.2 °F 30.08 in West 3.0 mph 3.0 mph 94% 0.00 in WeatherDisplay:10.37 W/m2 CLR
08:50 68.3 °F 66.5 °F 30.08 in West 3.0 mph 3.0 mph 94% 0.00 in WeatherDisplay:10.37 W/m2 CLR
08:55 68.5 °F 66.4 °F 30.08 in West 3.0 mph 3.0 mph 93% 0.00 in WeatherDisplay:10.37 W/m2 CLR
09:00 68.6 °F 66.5 °F 30.08 in West 3.0 mph 3.0 mph 93% 0.00 in WeatherDisplay:10.37 W/m2 CLR
09:10 69.1 °F 67.0 °F 30.08 in West 3.0 mph 3.0 mph 93% 0.00 in WeatherDisplay:10.37 W/m2 CLR
09:15 69.4 °F 67.3 °F 30.08 in West 3.0 mph 3.0 mph 93% 0.00 in WeatherDisplay:10.37 W/m2 CLR
09:20 69.9 °F 67.7 °F 30.08 in West 3.0 mph 3.0 mph 93% 0.00 in WeatherDisplay:10.37 W/m2 CLR
09:25 70.2 °F 67.8 °F 30.08 in West 3.0 mph 3.0 mph 92% 0.00 in WeatherDisplay:10.37 W/m2 CLR
09:30 70.6 °F 67.9 °F 30.08 in West 3.0 mph 3.0 mph 91% 0.00 in WeatherDisplay:10.37 W/m2 CLR
09:35 71.1 °F 68.0 °F 30.08 in West 3.0 mph 3.0 mph 90% 0.00 in WeatherDisplay:10.37 W/m2 CLR
09:40 71.6 °F 68.2 °F 30.08 in West 3.0 mph 3.0 mph 89% 0.00 in WeatherDisplay:10.37 W/m2 CLR
09:45 72.1 °F 68.3 °F 30.08 in West 3.0 mph 3.0 mph 88% 0.00 in WeatherDisplay:10.37 W/m2 CLR
09:50 72.6 °F 68.2 °F 30.08 in West 3.0 mph 3.0 mph 86% 0.00 in WeatherDisplay:10.37 W/m2 CLR
09:55 73.1 °F 67.6 °F 30.08 in West 3.0 mph 3.0 mph 83% 0.00 in WeatherDisplay:10.37 W/m2 CLR
10:00 73.6 °F 67.7 °F 30.08 in West 3.0 mph 3.0 mph 82% 0.00 in WeatherDisplay:10.37 W/m2 CLR
10:05 74.1 °F 67.9 °F 30.08 in West 3.0 mph 3.0 mph 81% 0.00 in WeatherDisplay:10.37 W/m2 CLR
10:10 74.6 °F 68.0 °F 30.08 in West 3.0 mph 3.0 mph 80% 0.00 in WeatherDisplay:10.37 W/m2 CLR
10:15 75.0 °F 68.0 °F 30.08 in NNE 3.0 mph 3.0 mph 79% 0.00 in WeatherDisplay:10.37 W/m2 CLR
10:20 75.3 °F 67.6 °F 30.08 in ENE 3.0 mph 3.0 mph 77% 0.00 in WeatherDisplay:10.37 W/m2 CLR
10:25 75.8 °F 67.7 °F 30.08 in ENE 3.0 mph 3.0 mph 76% 0.00 in WeatherDisplay:10.37 W/m2 CLR
10:30 76.1 °F 68.0 °F 30.08 in ENE 3.0 mph 3.0 mph 76% 0.00 in WeatherDisplay:10.37 W/m2 CLR
10:40 77.2 °F 68.3 °F 30.08 in ENE 3.0 mph 3.0 mph 74% 0.00 in WeatherDisplay:10.37 W/m2 CLR
10:45 78.1 °F 68.3 °F 30.08 in ENE 3.0 mph 3.0 mph 72% 0.00 in WeatherDisplay:10.37 W/m2 CLR
10:50 78.5 °F 67.5 °F 30.08 in ENE 3.0 mph 3.0 mph 69% 0.00 in WeatherDisplay:10.37 W/m2 CLR
10:55 79.1 °F 67.6 °F 30.08 in ENE 3.0 mph 3.0 mph 68% 0.00 in WeatherDisplay:10.37 W/m2 CLR
11:00 79.9 °F 68.0 °F 30.08 in ENE 3.0 mph 3.0 mph 67% 0.00 in WeatherDisplay:10.37 W/m2 CLR
11:05 81.1 °F 67.3 °F 30.08 in ENE 3.0 mph 3.0 mph 63% 0.00 in WeatherDisplay:10.37 W/m2 CLR
11:10 82.6 °F 67.8 °F 30.08 in ENE 3.0 mph 3.0 mph 61% 0.00 in WeatherDisplay:10.37 W/m2 CLR
11:15 83.2 °F 66.9 °F 30.07 in East 5.0 mph 5.0 mph 58% 0.00 in WeatherDisplay:10.37 W/m2 CLR
11:20 83.3 °F 66.4 °F 30.08 in East 5.0 mph 5.0 mph 57% 0.00 in WeatherDisplay:10.37 W/m2 CLR
11:25 84.2 °F 68.3 °F 30.07 in East 5.0 mph 5.0 mph 59% 0.00 in WeatherDisplay:10.37 W/m2 CLR
11:30 84.8 °F 67.9 °F 30.07 in East 5.0 mph 5.0 mph 57% 0.00 in WeatherDisplay:10.37 W/m2 CLR
11:40 85.0 °F 67.0 °F 30.07 in East 5.0 mph 5.0 mph 55% 0.00 in WeatherDisplay:10.37 W/m2 CLR
11:45 85.3 °F 66.8 °F 30.07 in East 5.0 mph 5.0 mph 54% 0.00 in WeatherDisplay:10.37 W/m2 CLR
11:50 86.0 °F 67.4 °F 30.07 in East 5.0 mph 5.0 mph 54% 0.00 in WeatherDisplay:10.37 W/m2 CLR
12:00 85.9 °F 66.8 °F 30.07 in East 5.0 mph 5.0 mph 53% 0.00 in WeatherDisplay:10.37 W/m2 CLR
12:05 86.2 °F 67.6 °F 30.07 in East 5.0 mph 5.0 mph 54% 0.00 in WeatherDisplay:10.37 W/m2 CLR
12:10 86.7 °F 68.6 °F 30.08 in East 5.0 mph 5.0 mph 55% 0.00 in WeatherDisplay:10.37 W/m2 CLR
12:15 87.1 °F 66.8 °F 30.07 in East 5.0 mph 5.0 mph 51% 0.00 in WeatherDisplay:10.37 W/m2 FEW
12:20 87.4 °F 66.5 °F 30.07 in East 5.0 mph 5.0 mph 50% 0.00 in WeatherDisplay:10.37 W/m2 FEW
12:30 87.8 °F 67.4 °F 30.07 in East 5.0 mph 5.0 mph 51% 0.00 in WeatherDisplay:10.37 W/m2 FEW
12:35 87.9 °F 67.5 °F 30.07 in East 5.0 mph 5.0 mph 51% 0.00 in WeatherDisplay:10.37 W/m2 FEW
12:40 88.2 °F 67.2 °F 30.07 in East 5.0 mph 5.0 mph 50% 0.00 in WeatherDisplay:10.37 W/m2 FEW
12:45 88.4 °F 67.9 °F 30.07 in East 5.0 mph 5.0 mph 51% 0.00 in WeatherDisplay:10.37 W/m2 FEW
12:50 89.0 °F 67.4 °F 30.07 in East 5.0 mph 5.0 mph 49% 0.00 in WeatherDisplay:10.37 W/m2 FEW
12:55 89.2 °F 65.1 °F 30.06 in East 5.0 mph 5.0 mph 45% 0.00 in WeatherDisplay:10.37 W/m2 FEW
13:00 88.8 °F 64.7 °F 30.06 in East 5.0 mph 5.0 mph 45% 0.00 in WeatherDisplay:10.37 W/m2 FEW
13:05 88.1 °F 67.1 °F 30.06 in East 5.0 mph 5.0 mph 50% 0.00 in WeatherDisplay:10.37 W/m2 FEW
13:10 87.9 °F 65.1 °F 30.06 in East 5.0 mph 5.0 mph 47% 0.00 in WeatherDisplay:10.37 W/m2 FEW
13:15 87.2 °F 65.7 °F 30.06 in East 5.0 mph 5.0 mph 49% 0.00 in WeatherDisplay:10.37 W/m2 FEW
13:20 87.3 °F 66.4 °F 30.05 in ENE 5.0 mph 5.0 mph 50% 0.00 in WeatherDisplay:10.37 W/m2 FEW
13:25 87.2 °F 65.1 °F 30.05 in ENE 5.0 mph 5.0 mph 48% 0.00 in WeatherDisplay:10.37 W/m2 FEW
13:30 86.9 °F 66.0 °F 30.05 in ENE 5.0 mph 5.0 mph 50% 0.00 in WeatherDisplay:10.37 W/m2 FEW
13:40 87.4 °F 67.0 °F 30.04 in ENE 5.0 mph 5.0 mph 51% 0.00 in WeatherDisplay:10.37 W/m2 FEW
13:45 87.9 °F 66.3 °F 30.04 in ENE 5.0 mph 5.0 mph 49% 0.00 in WeatherDisplay:10.37 W/m2 FEW
13:50 88.2 °F 66.6 °F 30.04 in ENE 5.0 mph 5.0 mph 49% 0.00 in WeatherDisplay:10.37 W/m2 FEW
13:55 88.6 °F 66.4 °F 30.04 in ENE 5.0 mph 5.0 mph 48% 0.00 in WeatherDisplay:10.37 W/m2 FEW
14:00 89.1 °F 65.6 °F 30.04 in ENE 5.0 mph 5.0 mph 46% 0.00 in WeatherDisplay:10.37 W/m2 FEW
14:10 89.5 °F 66.6 °F 30.03 in ENE 5.0 mph 5.0 mph 47% 0.00 in WeatherDisplay:10.37 W/m2 FEW
14:15 89.8 °F 65.0 °F 30.03 in ENE 5.0 mph 5.0 mph 44% 0.00 in WeatherDisplay:10.37 W/m2 SCT
14:20 89.6 °F 65.5 °F 30.03 in ENE 5.0 mph 5.0 mph 45% 0.00 in WeatherDisplay:10.37 W/m2 SCT
14:25 89.5 °F 65.4 °F 30.03 in ENE 5.0 mph 5.0 mph 45% 0.00 in WeatherDisplay:10.37 W/m2 SCT
14:30 89.2 °F 65.1 °F 30.03 in ENE 5.0 mph 5.0 mph 45% 0.00 in WeatherDisplay:10.37 W/m2 SCT
14:35 88.8 °F 65.3 °F 30.02 in ENE 5.0 mph 5.0 mph 46% 0.00 in WeatherDisplay:10.37 W/m2 SCT
14:40 88.0 °F 65.3 °F 30.02 in ENE 5.0 mph 5.0 mph 47% 0.00 in WeatherDisplay:10.37 W/m2 SCT
14:45 86.8 °F 66.5 °F 30.02 in ENE 5.0 mph 5.0 mph 51% 0.00 in WeatherDisplay:10.37 W/m2 SCT
14:50 85.8 °F 66.7 °F 30.02 in ENE 5.0 mph 5.0 mph 53% 0.00 in WeatherDisplay:10.37 W/m2 SCT
14:55 85.0 °F 66.0 °F 30.02 in ENE 5.0 mph 5.0 mph 53% 0.00 in WeatherDisplay:10.37 W/m2 SCT
15:00 85.8 °F 66.7 °F 30.02 in ENE 5.0 mph 5.0 mph 53% 0.00 in WeatherDisplay:10.37 W/m2 SCT
15:05 87.0 °F 66.6 °F 30.02 in ENE 5.0 mph 5.0 mph 51% 0.00 in WeatherDisplay:10.37 W/m2 SCT
15:10 87.2 °F 66.3 °F 30.01 in ENE 5.0 mph 5.0 mph 50% 0.00 in WeatherDisplay:10.37 W/m2 SCT
15:15 87.5 °F 64.8 °F 30.01 in ESE 3.0 mph 5.0 mph 47% 0.00 in WeatherDisplay:10.37 W/m2 SCT
15:20 87.7 °F 65.6 °F 30.01 in SE 3.0 mph 3.0 mph 48% 0.00 in WeatherDisplay:10.37 W/m2 SCT
15:25 87.0 °F 65.5 °F 30.01 in SE 3.0 mph 3.0 mph 49% 0.00 in WeatherDisplay:10.37 W/m2 SCT
15:30 86.3 °F 64.9 °F 30.01 in SE 3.0 mph 3.0 mph 49% 0.00 in WeatherDisplay:10.37 W/m2 SCT
15:35 86.1 °F 64.1 °F 30.01 in SE 3.0 mph 3.0 mph 48% 0.00 in WeatherDisplay:10.37 W/m2 SCT
15:40 85.9 °F 65.1 °F 30.01 in SE 3.0 mph 3.0 mph 50% 0.00 in WeatherDisplay:10.37 W/m2 SCT
15:45 85.9 °F 63.4 °F 30.01 in SE 3.0 mph 3.0 mph 47% 0.00 in WeatherDisplay:10.37 W/m2 SCT
15:50 86.1 °F 63.5 °F 30.01 in SE 3.0 mph 3.0 mph 47% 0.00 in WeatherDisplay:10.37 W/m2 SCT
15:55 86.2 °F 63.0 °F 30.00 in SE 3.0 mph 3.0 mph 46% 0.00 in WeatherDisplay:10.37 W/m2 SCT
16:00 86.2 °F 63.6 °F 30.00 in SE 3.0 mph 3.0 mph 47% 0.00 in WeatherDisplay:10.37 W/m2 SCT
16:05 86.2 °F 64.8 °F 30.00 in SE 3.0 mph 3.0 mph 49% 0.00 in WeatherDisplay:10.37 W/m2 SCT
16:10 86.1 °F 62.9 °F 30.00 in SE 3.0 mph 3.0 mph 46% 0.00 in WeatherDisplay:10.37 W/m2 SCT
16:15 86.3 °F 64.9 °F 29.99 in SSW 3.0 mph 3.0 mph 49% 0.00 in WeatherDisplay:10.37 W/m2 BKN
16:20 86.5 °F 63.2 °F 29.99 in WSW 3.0 mph 3.0 mph 46% 0.00 in WeatherDisplay:10.37 W/m2 BKN
16:25 86.5 °F 64.5 °F 29.99 in WSW 3.0 mph 3.0 mph 48% 0.00 in WeatherDisplay:10.37 W/m2 BKN
16:30 86.5 °F 65.7 °F 29.99 in WSW 3.0 mph 3.0 mph 50% 0.00 in WeatherDisplay:10.37 W/m2 BKN
16:40 86.3 °F 63.7 °F 29.99 in WSW 3.0 mph 3.0 mph 47% 0.00 in WeatherDisplay:10.37 W/m2 BKN
16:45 86.3 °F 64.9 °F 29.99 in WSW 3.0 mph 3.0 mph 49% 0.00 in WeatherDisplay:10.37 W/m2 BKN
16:50 86.4 °F 64.4 °F 29.99 in WSW 3.0 mph 3.0 mph 48% 0.00 in WeatherDisplay:10.37 W/m2 BKN
17:00 86.5 °F 63.9 °F 29.99 in WSW 3.0 mph 3.0 mph 47% 0.00 in WeatherDisplay:10.37 W/m2 BKN
17:05 86.1 °F 64.8 °F 29.99 in WSW 3.0 mph 3.0 mph 49% 0.00 in WeatherDisplay:10.37 W/m2 BKN
17:10 85.5 °F 65.3 °F 29.99 in WSW 3.0 mph 3.0 mph 51% 0.00 in WeatherDisplay:10.37 W/m2 BKN
17:15 84.9 °F 65.9 °F 29.99 in NW 6.0 mph 6.0 mph 53% 0.00 in WeatherDisplay:10.37 W/m2 BKN
17:20 84.3 °F 66.4 °F 29.99 in North 6.0 mph 6.0 mph 55% 0.00 in WeatherDisplay:10.37 W/m2 BKN
17:25 83.5 °F 66.7 °F 29.98 in North 6.0 mph 6.0 mph 57% 0.00 in WeatherDisplay:10.37 W/m2 BKN
17:30 82.7 °F 67.0 °F 29.99 in North 6.0 mph 6.0 mph 59% 0.00 in WeatherDisplay:10.37 W/m2 BKN
17:35 82.1 °F 66.8 °F 29.99 in North 6.0 mph 6.0 mph 60% 0.00 in WeatherDisplay:10.37 W/m2 BKN
17:40 81.7 °F 66.4 °F 29.99 in North 6.0 mph 6.0 mph 60% 0.00 in WeatherDisplay:10.37 W/m2 BKN
17:45 81.7 °F 66.5 °F 29.99 in North 6.0 mph 6.0 mph 60% 0.00 in WeatherDisplay:10.37 W/m2 BKN
17:50 81.7 °F 66.5 °F 29.99 in North 6.0 mph 6.0 mph 60% 0.00 in WeatherDisplay:10.37 W/m2 BKN
17:55 81.7 °F 67.4 °F 29.99 in North 6.0 mph 6.0 mph 62% 0.00 in WeatherDisplay:10.37 W/m2 BKN
18:00 81.4 °F 67.1 °F 29.99 in North 6.0 mph 6.0 mph 62% 0.00 in WeatherDisplay:10.37 W/m2 BKN
18:05 81.2 °F 67.4 °F 29.98 in North 6.0 mph 6.0 mph 63% 0.00 in WeatherDisplay:10.37 W/m2 BKN
18:10 81.0 °F 68.1 °F 29.98 in North 6.0 mph 6.0 mph 65% 0.00 in WeatherDisplay:10.37 W/m2 BKN
18:15 80.6 °F 68.2 °F 29.99 in North 6.0 mph 6.0 mph 66% 0.00 in WeatherDisplay:10.37 W/m2 BKN
18:20 80.2 °F 67.3 °F 29.98 in North 6.0 mph 6.0 mph 65% 0.00 in WeatherDisplay:10.37 W/m2 BKN
18:25 80.0 °F 67.6 °F 29.98 in North 6.0 mph 6.0 mph 66% 0.00 in WeatherDisplay:10.37 W/m2 BKN
18:30 79.8 °F 67.9 °F 29.98 in North 6.0 mph 6.0 mph 67% 0.00 in WeatherDisplay:10.37 W/m2 BKN
18:35 79.7 °F 67.8 °F 29.99 in North 6.0 mph 6.0 mph 67% 0.00 in WeatherDisplay:10.37 W/m2 BKN
18:40 79.6 °F 67.2 °F 29.99 in North 6.0 mph 6.0 mph 66% 0.00 in WeatherDisplay:10.37 W/m2 BKN
18:45 79.3 °F 67.4 °F 29.99 in North 6.0 mph 6.0 mph 67% 0.00 in WeatherDisplay:10.37 W/m2 BKN
18:50 79.2 °F 66.9 °F 29.99 in North 6.0 mph 6.0 mph 66% 0.00 in WeatherDisplay:10.37 W/m2 BKN
18:55 79.0 °F 67.1 °F 29.99 in North 6.0 mph 6.0 mph 67% 0.00 in WeatherDisplay:10.37 W/m2 BKN
19:00 78.8 °F 66.9 °F 29.99 in North 6.0 mph 6.0 mph 67% 0.00 in WeatherDisplay:10.37 W/m2 BKN
19:05 78.7 °F 67.2 °F 29.99 in North 6.0 mph 6.0 mph 68% 0.00 in WeatherDisplay:10.37 W/m2 BKN
19:10 78.5 °F 67.1 °F 29.99 in North 6.0 mph 6.0 mph 68% 0.00 in WeatherDisplay:10.37 W/m2 BKN
19:15 78.2 °F 67.2 °F 29.99 in North 6.0 mph 6.0 mph 69% 0.00 in WeatherDisplay:10.37 W/m2 BKN
19:20 77.9 °F 67.3 °F 29.99 in North 6.0 mph 6.0 mph 70% 0.00 in WeatherDisplay:10.37 W/m2 BKN
19:25 77.7 °F 67.5 °F 29.99 in North 6.0 mph 6.0 mph 71% 0.00 in WeatherDisplay:10.37 W/m2 BKN
19:30 77.6 °F 67.4 °F 29.99 in North 6.0 mph 6.0 mph 71% 0.00 in WeatherDisplay:10.37 W/m2 BKN
19:40 77.1 °F 67.4 °F 29.99 in North 6.0 mph 6.0 mph 72% 0.00 in WeatherDisplay:10.37 W/m2 BKN
19:45 76.8 °F 67.5 °F 29.99 in North 6.0 mph 6.0 mph 73% 0.00 in WeatherDisplay:10.37 W/m2 BKN
19:50 76.6 °F 67.3 °F 29.99 in North 6.0 mph 6.0 mph 73% 0.00 in WeatherDisplay:10.37 W/m2 BKN
19:55 76.4 °F 67.1 °F 29.99 in North 6.0 mph 6.0 mph 73% 0.00 in WeatherDisplay:10.37 W/m2 BKN
20:00 76.2 °F 67.3 °F 29.99 in North 6.0 mph 6.0 mph 74% 0.00 in WeatherDisplay:10.37 W/m2 BKN
20:05 76.1 °F 67.2 °F 29.99 in North 6.0 mph 6.0 mph 74% 0.00 in WeatherDisplay:10.37 W/m2 BKN
20:10 75.8 °F 67.3 °F 29.99 in North 6.0 mph 6.0 mph 75% 0.00 in WeatherDisplay:10.37 W/m2 BKN
20:15 75.6 °F 67.5 °F 29.99 in North 6.0 mph 6.0 mph 76% 0.00 in WeatherDisplay:10.37 W/m2 SCT
20:20 75.3 °F 67.6 °F 30.00 in North 6.0 mph 6.0 mph 77% 0.00 in WeatherDisplay:10.37 W/m2 SCT
20:25 75.0 °F 67.7 °F 30.00 in North 6.0 mph 6.0 mph 78% 0.00 in WeatherDisplay:10.37 W/m2 SCT
20:30 74.6 °F 67.3 °F 30.00 in North 6.0 mph 6.0 mph 78% 0.00 in WeatherDisplay:10.37 W/m2 SCT
20:35 74.4 °F 67.5 °F 30.00 in North 6.0 mph 6.0 mph 79% 0.00 in WeatherDisplay:10.37 W/m2 SCT
20:40 74.3 °F 67.4 °F 30.01 in North 6.0 mph 6.0 mph 79% 0.00 in WeatherDisplay:10.37 W/m2 SCT
20:45 74.2 °F 67.3 °F 30.01 in North 6.0 mph 6.0 mph 79% 0.00 in WeatherDisplay:10.37 W/m2 SCT
20:50 74.2 °F 67.6 °F 30.01 in North 6.0 mph 6.0 mph 80% 0.00 in WeatherDisplay:10.37 W/m2 SCT
20:55 74.0 °F 67.4 °F 30.02 in North 6.0 mph 6.0 mph 80% 0.00 in WeatherDisplay:10.37 W/m2 SCT
21:00 73.9 °F 67.4 °F 30.02 in North 6.0 mph 6.0 mph 80% 0.00 in WeatherDisplay:10.37 W/m2 SCT
21:10 73.7 °F 66.8 °F 30.02 in North 6.0 mph 6.0 mph 79% 0.00 in WeatherDisplay:10.37 W/m2 SCT
21:15 73.6 °F 67.1 °F 30.02 in North 6.0 mph 6.0 mph 80% 0.00 in WeatherDisplay:10.37 W/m2 SCT
21:20 73.5 °F 67.3 °F 30.02 in North 6.0 mph 6.0 mph 81% 0.00 in WeatherDisplay:10.37 W/m2 SCT
21:25 73.4 °F 67.2 °F 30.02 in North 6.0 mph 6.0 mph 81% 0.00 in WeatherDisplay:10.37 W/m2 SCT
21:30 73.2 °F 67.0 °F 30.03 in North 6.0 mph 6.0 mph 81% 0.00 in WeatherDisplay:10.37 W/m2 SCT
21:35 73.1 °F 67.3 °F 30.02 in North 6.0 mph 6.0 mph 82% 0.00 in WeatherDisplay:10.37 W/m2 SCT
21:40 73.0 °F 67.5 °F 30.03 in North 6.0 mph 6.0 mph 83% 0.00 in WeatherDisplay:10.37 W/m2 SCT
21:45 72.9 °F 67.4 °F 30.03 in North 6.0 mph 6.0 mph 83% 0.00 in WeatherDisplay:10.37 W/m2 SCT
21:50 72.9 °F 67.4 °F 30.03 in North 6.0 mph 6.0 mph 83% 0.00 in WeatherDisplay:10.37 W/m2 SCT
21:55 72.8 °F 67.6 °F 30.03 in North 6.0 mph 6.0 mph 84% 0.00 in WeatherDisplay:10.37 W/m2 SCT
22:00 72.6 °F 67.5 °F 30.04 in North 6.0 mph 6.0 mph 84% 0.00 in WeatherDisplay:10.37 W/m2 SCT
22:05 72.5 °F 67.4 °F 30.03 in North 6.0 mph 6.0 mph 84% 0.00 in WeatherDisplay:10.37 W/m2 SCT
22:10 72.4 °F 67.3 °F 30.04 in North 6.0 mph 6.0 mph 84% 0.00 in WeatherDisplay:10.37 W/m2 SCT
22:15 72.4 °F 67.3 °F 30.04 in NE 3.0 mph 6.0 mph 84% 0.00 in WeatherDisplay:10.37 W/m2 BKN
22:25 72.5 °F 67.4 °F 30.04 in ENE 3.0 mph 3.0 mph 84% 0.00 in WeatherDisplay:10.37 W/m2 BKN
22:30 72.6 °F 67.5 °F 30.03 in ENE 3.0 mph 3.0 mph 84% 0.00 in WeatherDisplay:10.37 W/m2 BKN
22:35 72.7 °F 67.6 °F 30.03 in ENE 3.0 mph 3.0 mph 84% 0.00 in WeatherDisplay:10.37 W/m2 BKN
22:40 72.7 °F 67.6 °F 30.03 in ENE 3.0 mph 3.0 mph 84% 0.00 in WeatherDisplay:10.37 W/m2 BKN
22:45 72.6 °F 67.5 °F 30.03 in ENE 3.0 mph 3.0 mph 84% 0.00 in WeatherDisplay:10.37 W/m2 BKN
22:50 72.6 °F 67.1 °F 30.03 in ENE 3.0 mph 3.0 mph 83% 0.00 in WeatherDisplay:10.37 W/m2 BKN
22:55 72.6 °F 67.1 °F 30.03 in ENE 3.0 mph 3.0 mph 83% 0.00 in WeatherDisplay:10.37 W/m2 BKN
23:00 72.5 °F 67.4 °F 30.03 in ENE 3.0 mph 3.0 mph 84% 0.00 in WeatherDisplay:10.37 W/m2 BKN
23:05 72.3 °F 67.2 °F 30.03 in ENE 3.0 mph 3.0 mph 84% 0.00 in WeatherDisplay:10.37 W/m2 BKN
23:10 72.1 °F 67.3 °F 30.04 in ENE 3.0 mph 3.0 mph 85% 0.00 in WeatherDisplay:10.37 W/m2 BKN
23:15 71.9 °F 67.1 °F 30.04 in ENE 3.0 mph 3.0 mph 85% 0.00 in WeatherDisplay:10.37 W/m2 SCT
23:20 71.7 °F 67.0 °F 30.04 in ENE 3.0 mph 3.0 mph 85% 0.00 in WeatherDisplay:10.37 W/m2 SCT
23:25 71.6 °F 66.8 °F 30.04 in ENE 3.0 mph 3.0 mph 85% 0.00 in WeatherDisplay:10.37 W/m2 SCT
23:35 71.3 °F 66.9 °F 30.04 in ENE 3.0 mph 3.0 mph 86% 0.00 in WeatherDisplay:10.37 W/m2 SCT
23:40 71.2 °F 66.8 °F 30.04 in ENE 3.0 mph 3.0 mph 86% 0.00 in WeatherDisplay:10.37 W/m2 SCT
23:45 71.1 °F 66.7 °F 30.04 in ENE 3.0 mph 3.0 mph 86% 0.00 in WeatherDisplay:10.37 W/m2 SCT
23:50 71.1 °F 66.4 °F 30.04 in ENE 3.0 mph 3.0 mph 85% 0.00 in WeatherDisplay:10.37 W/m2 SCT
23:55 71.0 °F 66.3 °F 30.04 in ENE 3.0 mph 3.0 mph 85% 0.00 in WeatherDisplay:10.37 W/m2 SCT
Piedmont Bend
Compliments of Weather Underground - 4 mb